createdAt,value
2019-05-07T00:02:05.942Z,1.50
2019-05-07T00:04:33.258Z,1.70
2019-05-07T00:07:02.379Z,1.40
2019-05-07T00:09:29.331Z,2.00
2019-05-07T00:11:56.411Z,1.37
2019-05-07T00:14:23.507Z,1.53
2019-05-07T00:16:50.532Z,1.50
2019-05-07T00:19:17.514Z,1.97
2019-05-07T00:21:44.547Z,1.77
2019-05-07T00:24:13.245Z,1.50
2019-05-07T00:26:42.786Z,1.60
2019-05-07T00:29:09.340Z,1.53
2019-05-07T00:31:37.016Z,1.50
2019-05-07T00:34:04.015Z,1.60
2019-05-07T00:36:41.953Z,2.07
2019-05-07T00:39:22.018Z,1.37
2019-05-07T00:41:55.531Z,1.50
2019-05-07T00:44:22.892Z,1.43
2019-05-07T00:46:49.905Z,1.60
2019-05-07T00:49:17.184Z,1.50
2019-05-07T00:51:44.251Z,1.30
2019-05-07T00:54:12.303Z,1.70
2019-05-07T00:56:39.493Z,1.50
2019-05-07T00:59:06.542Z,1.10
2019-05-07T01:01:34.068Z,1.13
2019-05-07T01:04:02.633Z,1.30
2019-05-07T01:06:29.853Z,1.50
2019-05-07T01:08:56.874Z,1.30
2019-05-07T01:11:23.878Z,1.60
2019-05-07T01:13:52.056Z,1.60
2019-05-07T01:16:19.197Z,1.60
2019-05-07T01:18:46.198Z,1.57
2019-05-07T01:21:13.334Z,1.27
2019-05-07T01:23:42.597Z,1.50
2019-05-07T01:26:09.408Z,1.00
2019-05-07T01:28:54.397Z,1.53
2019-05-07T01:31:22.183Z,1.20
2019-05-07T01:33:53.645Z,1.47
2019-05-07T01:36:22.634Z,1.70
2019-05-07T01:38:49.553Z,1.17
2019-05-07T01:41:16.566Z,1.30
2019-05-07T01:43:43.599Z,1.50
2019-05-07T01:46:12.302Z,1.70
2019-05-07T01:48:39.427Z,1.50
2019-05-07T01:51:06.414Z,1.40
2019-05-07T01:53:33.445Z,1.40
2019-05-07T01:56:00.449Z,1.50
2019-05-07T01:58:27.458Z,1.47
2019-05-07T02:00:54.477Z,1.50
2019-05-07T02:03:42.800Z,1.53
2019-05-07T02:06:14.475Z,1.30
2019-05-07T02:08:59.787Z,1.43
2019-05-07T02:11:34.060Z,1.30
2019-05-07T02:14:02.033Z,1.10
2019-05-07T02:16:29.265Z,1.17
2019-05-07T02:18:56.388Z,1.13
2019-05-07T02:21:23.409Z,1.40
2019-05-07T02:23:52.307Z,1.50
2019-05-07T02:26:19.365Z,1.40
2019-05-07T02:28:46.354Z,1.90
2019-05-07T02:31:15.103Z,1.43
2019-05-07T02:33:43.478Z,1.30
2019-05-07T02:36:13.891Z,1.40
2019-05-07T02:38:53.572Z,1.47
2019-05-07T02:41:24.080Z,1.30
2019-05-07T02:43:53.517Z,1.50
2019-05-07T02:46:48.220Z,1.50
2019-05-07T02:49:38.040Z,1.40
2019-05-07T02:52:13.469Z,1.40
2019-05-07T02:54:59.158Z,1.47
2019-05-07T02:57:26.903Z,1.37
2019-05-07T02:59:54.554Z,1.27
2019-05-07T03:02:24.129Z,1.17
2019-05-07T03:04:53.223Z,1.10
2019-05-07T03:07:23.881Z,1.57
2019-05-07T03:09:49.782Z,1.30
2019-05-07T03:12:17.247Z,1.20
2019-05-07T03:14:44.338Z,1.30
2019-05-07T03:17:13.297Z,1.30
2019-05-07T03:19:43.005Z,1.10
2019-05-07T03:22:13.269Z,1.30
2019-05-07T03:25:03.309Z,1.50
2019-05-07T03:27:29.838Z,1.37
2019-05-07T03:30:04.538Z,1.60
2019-05-07T03:32:46.914Z,1.50
2019-05-07T03:35:36.994Z,1.10
2019-05-07T03:38:03.514Z,1.13
2019-05-07T03:40:32.986Z,1.10
2019-05-07T03:43:02.858Z,1.03
2019-05-07T03:45:48.411Z,1.00
2019-05-07T03:48:19.771Z,1.47
2019-05-07T03:50:46.737Z,1.20
2019-05-07T03:53:14.500Z,1.20
2019-05-07T03:55:44.455Z,1.30
2019-05-07T03:58:14.208Z,1.07
2019-05-07T04:00:39.465Z,1.30
2019-05-07T04:03:06.474Z,1.00
2019-05-07T04:05:34.219Z,1.13
2019-05-07T04:08:03.360Z,1.80
2019-05-07T04:10:33.505Z,1.00
2019-05-07T04:13:04.195Z,1.47
2019-05-07T04:15:32.807Z,1.80
2019-05-07T04:17:59.123Z,1.30
2019-05-07T04:20:26.129Z,1.40
2019-05-07T04:22:53.666Z,1.30
2019-05-07T04:25:49.251Z,1.20
2019-05-07T04:28:29.373Z,1.30
2019-05-07T04:30:56.980Z,1.80
2019-05-07T04:33:26.235Z,1.23
2019-05-07T04:35:59.287Z,1.23
2019-05-07T04:38:26.315Z,1.43
2019-05-07T04:40:53.704Z,1.50
2019-05-07T04:43:23.225Z,1.30
2019-05-07T04:45:49.832Z,1.50
2019-05-07T04:48:16.848Z,1.80
2019-05-07T04:50:47.935Z,1.10
2019-05-07T04:53:14.390Z,1.37
2019-05-07T04:55:43.020Z,1.50
2019-05-07T04:58:10.212Z,1.80
2019-05-07T05:00:37.211Z,1.97
2019-05-07T05:03:15.094Z,2.17
2019-05-07T05:05:43.557Z,2.00
2019-05-07T05:08:13.155Z,2.30
2019-05-07T05:10:39.635Z,2.93
2019-05-07T05:13:06.657Z,2.03
2019-05-07T05:15:33.676Z,2.40
2019-05-07T05:18:02.627Z,2.60
2019-05-07T05:20:38.550Z,2.30
2019-05-07T05:23:27.607Z,2.20
2019-05-07T05:25:54.653Z,1.97
2019-05-07T05:28:21.975Z,2.17
2019-05-07T05:33:32.403Z,2.20
2019-05-07T05:35:59.560Z,2.17
2019-05-07T05:38:26.549Z,2.90
2019-05-07T05:40:53.570Z,2.30
2019-05-07T05:43:42.495Z,2.13
2019-05-07T05:46:11.868Z,2.87
2019-05-07T05:48:38.642Z,2.23
2019-05-07T05:51:25.106Z,2.00
2019-05-07T05:54:12.784Z,2.60
2019-05-07T05:56:47.947Z,2.20
2019-05-07T05:59:37.066Z,2.20
2019-05-07T06:02:15.319Z,1.83
2019-05-07T06:05:14.980Z,1.90
2019-05-07T06:07:47.927Z,1.97
2019-05-07T06:10:33.651Z,2.30
2019-05-07T06:13:09.574Z,2.30
2019-05-07T06:15:55.544Z,2.43
2019-05-07T06:18:44.946Z,2.07
2019-05-07T06:21:32.290Z,2.20
2019-05-07T06:24:02.269Z,2.77
2019-05-07T06:26:31.397Z,2.27
2019-05-07T06:28:58.465Z,3.00
2019-05-07T06:31:26.021Z,2.37
2019-05-07T06:33:53.315Z,2.53
2019-05-07T06:36:25.784Z,3.07
2019-05-07T06:39:12.598Z,3.30
2019-05-07T06:41:57.920Z,2.00
2019-05-07T06:44:26.016Z,2.40
2019-05-07T06:46:53.788Z,2.70
2019-05-07T06:49:22.283Z,2.00
2019-05-07T06:51:49.611Z,2.00
2019-05-07T06:54:16.957Z,2.43
2019-05-07T06:56:44.057Z,2.03
2019-05-07T06:59:19.324Z,2.83
2019-05-07T07:02:22.534Z,2.00
2019-05-07T07:04:53.994Z,2.40
2019-05-07T07:07:42.141Z,2.63
2019-05-07T07:10:28.328Z,2.03
2019-05-07T07:12:55.360Z,2.10
2019-05-07T07:15:23.166Z,2.03
2019-05-07T07:17:52.294Z,2.17
2019-05-07T07:20:19.245Z,1.63
2019-05-07T07:22:46.316Z,2.63
2019-05-07T07:25:13.346Z,2.17
2019-05-07T07:27:42.813Z,2.00
2019-05-07T07:30:18.877Z,2.67
2019-05-07T07:32:46.574Z,2.17
2019-05-07T07:35:14.811Z,2.60
2019-05-07T07:37:42.981Z,2.07
2019-05-07T07:40:32.608Z,2.57
2019-05-07T07:43:07.000Z,1.63
2019-05-07T07:45:33.500Z,1.67
2019-05-07T07:48:02.247Z,2.23
2019-05-07T07:50:29.488Z,2.00
2019-05-07T07:52:56.654Z,2.00
2019-05-07T07:55:33.010Z,1.80
2019-05-07T07:58:15.142Z,1.70
2019-05-07T08:01:03.154Z,2.00
2019-05-07T08:03:30.186Z,1.87
2019-05-07T08:05:57.253Z,1.43
2019-05-07T08:08:24.591Z,1.87
2019-05-07T08:10:52.083Z,2.60
2019-05-07T08:13:19.452Z,2.17
2019-05-07T08:15:46.542Z,1.80
2019-05-07T08:18:13.710Z,1.90
2019-05-07T08:20:42.886Z,1.60
2019-05-07T08:23:12.063Z,1.73
2019-05-07T08:25:48.028Z,1.80
2019-05-07T08:28:15.386Z,1.90
2019-05-07T08:30:44.251Z,2.13
2019-05-07T08:33:18.964Z,2.00
2019-05-07T08:35:49.641Z,2.43
2019-05-07T08:38:16.637Z,1.83
2019-05-07T08:40:43.635Z,2.63
2019-05-07T08:43:12.596Z,1.97
2019-05-07T08:45:57.616Z,1.70
2019-05-07T08:48:31.957Z,2.03
2019-05-07T08:50:59.072Z,1.63
2019-05-07T08:53:26.152Z,1.87
2019-05-07T08:55:53.193Z,2.10
2019-05-07T08:58:22.271Z,2.20
2019-05-07T09:00:49.062Z,1.90
2019-05-07T09:03:35.577Z,1.87
2019-05-07T09:06:02.592Z,1.40
2019-05-07T09:08:29.642Z,1.63
2019-05-07T09:10:56.760Z,1.80
2019-05-07T09:13:23.785Z,1.43
2019-05-07T09:15:52.704Z,1.50
2019-05-07T09:18:19.681Z,1.80
2019-05-07T09:20:46.768Z,1.77
2019-05-07T09:23:13.977Z,1.80
2019-05-07T09:25:47.459Z,1.60
2019-05-07T09:28:14.501Z,1.70
2019-05-07T09:30:59.011Z,1.50
2019-05-07T09:33:33.324Z,1.70
2019-05-07T09:36:02.242Z,2.03
2019-05-07T09:38:29.436Z,1.57
2019-05-07T09:40:57.126Z,2.17
2019-05-07T09:43:24.385Z,1.80
2019-05-07T09:45:52.329Z,2.10
2019-05-07T09:48:19.577Z,1.40
2019-05-07T09:50:46.847Z,1.30
2019-05-07T09:53:13.869Z,1.60
2019-05-07T09:55:42.582Z,1.77
2019-05-07T09:58:09.744Z,1.60
2019-05-07T10:00:36.797Z,1.90
2019-05-07T10:03:03.867Z,1.97
2019-05-07T10:05:32.140Z,1.50
2019-05-07T10:08:01.676Z,2.07
2019-05-07T10:10:28.696Z,1.90
2019-05-07T10:13:06.846Z,1.87
2019-05-07T10:15:34.032Z,2.03
2019-05-07T10:18:07.351Z,1.90
2019-05-07T10:20:34.394Z,1.50
2019-05-07T10:23:02.437Z,1.93
2019-05-07T10:25:37.883Z,1.90
2019-05-07T10:28:05.250Z,1.73
2019-05-07T10:30:32.396Z,2.37
2019-05-07T10:33:01.661Z,2.20
2019-05-07T10:35:30.923Z,1.67
2019-05-07T10:37:57.289Z,1.30
2019-05-07T10:40:24.430Z,1.40
2019-05-07T10:42:52.040Z,1.30
2019-05-07T10:45:38.668Z,1.97
2019-05-07T10:48:27.810Z,1.70
2019-05-07T10:50:55.853Z,1.80
2019-05-07T10:53:23.909Z,2.30
2019-05-07T10:55:50.924Z,2.33
2019-05-07T10:58:17.942Z,2.47
2019-05-07T11:00:44.974Z,2.20
2019-05-07T11:03:12.677Z,2.50
2019-05-07T11:05:41.897Z,2.17
2019-05-07T11:08:08.862Z,2.20
2019-05-07T11:10:36.105Z,2.97
2019-05-07T11:13:09.127Z,3.07
2019-05-07T11:15:39.299Z,2.40
2019-05-07T11:18:14.621Z,3.20
2019-05-07T11:20:52.801Z,2.57
2019-05-07T11:23:26.087Z,1.83
2019-05-07T11:25:53.782Z,2.70
2019-05-07T11:28:22.733Z,3.03
2019-05-07T11:30:50.573Z,2.40
2019-05-07T11:33:18.333Z,2.40
2019-05-07T11:35:45.441Z,3.13
2019-05-07T11:38:21.093Z,2.30
2019-05-07T11:40:42.811Z,2.27
2019-05-07T11:43:28.019Z,2.23
2019-05-07T11:46:08.423Z,2.37
2019-05-07T11:48:42.493Z,2.53
2019-05-07T11:54:02.628Z,2.00
2019-05-07T11:56:29.463Z,2.20
2019-05-07T11:58:56.315Z,1.80
2019-05-07T12:01:23.161Z,3.17
2019-05-07T12:03:51.927Z,2.00
2019-05-07T12:06:18.659Z,2.43
2019-05-07T12:08:51.540Z,2.87
2019-05-07T12:11:15.017Z,2.27
2019-05-07T12:13:42.787Z,1.80
2019-05-07T12:16:12.056Z,2.47
2019-05-07T12:18:38.493Z,1.77
2019-05-07T12:21:17.492Z,3.00
2019-05-07T12:23:34.487Z,1.90
2019-05-07T12:26:02.312Z,2.67
2019-05-07T12:28:29.390Z,2.10
2019-05-07T12:31:07.021Z,2.10
2019-05-07T12:34:08.478Z,2.73
2019-05-07T12:36:35.506Z,1.93
2019-05-07T12:39:03.001Z,1.93
2019-05-07T12:41:30.061Z,1.90
2019-05-07T12:43:57.585Z,2.43
2019-05-07T12:46:24.583Z,2.60
2019-05-07T12:48:52.382Z,2.30
2019-05-07T12:51:31.637Z,1.73
2019-05-07T12:53:52.499Z,1.53
2019-05-07T12:56:19.446Z,1.50
2019-05-07T12:58:46.366Z,1.70
2019-05-07T13:01:22.515Z,3.23
2019-05-07T13:04:15.072Z,1.67
2019-05-07T13:06:57.230Z,2.00
2019-05-07T13:09:24.058Z,2.37
2019-05-07T13:11:52.562Z,2.83
2019-05-07T13:14:21.678Z,2.77
2019-05-07T13:16:48.193Z,2.73
2019-05-07T13:19:15.006Z,1.83
2019-05-07T13:21:47.422Z,2.10
2019-05-07T13:24:11.760Z,1.97
2019-05-07T13:26:39.221Z,2.60
2019-05-07T13:29:06.023Z,2.30
2019-05-07T13:31:32.887Z,2.63
2019-05-07T13:34:00.134Z,2.10
2019-05-07T13:36:26.977Z,2.40
2019-05-07T13:39:18.494Z,2.33
2019-05-07T13:42:02.640Z,1.83
2019-05-07T13:44:54.734Z,2.20
2019-05-07T13:47:41.682Z,1.60
2019-05-07T13:50:08.778Z,2.07
2019-05-07T13:52:35.920Z,2.10
2019-05-07T13:55:02.850Z,2.20
2019-05-07T13:57:29.699Z,2.27
2019-05-07T13:59:56.526Z,1.80
2019-05-07T14:02:25.678Z,1.43
2019-05-07T14:04:52.733Z,1.40
2019-05-07T14:07:21.624Z,2.30
2019-05-07T14:09:48.344Z,2.00
2019-05-07T14:12:15.176Z,1.70
2019-05-07T14:14:42.574Z,2.20
2019-05-07T14:17:09.566Z,1.70
2019-05-07T14:19:36.413Z,2.10
2019-05-07T14:22:14.661Z,1.93
2019-05-07T14:24:32.855Z,1.90
2019-05-07T14:27:01.857Z,1.70
2019-05-07T14:29:28.528Z,1.90
2019-05-07T14:32:10.121Z,2.00
2019-05-07T14:34:56.502Z,1.90
2019-05-07T14:37:32.491Z,1.90
2019-05-07T14:39:59.760Z,2.03
2019-05-07T14:42:32.929Z,1.33
2019-05-07T14:44:59.815Z,1.70
2019-05-07T14:47:26.777Z,1.80
2019-05-07T14:49:53.737Z,1.70
2019-05-07T14:52:30.146Z,1.60
2019-05-07T14:54:49.267Z,1.47
2019-05-07T14:57:16.118Z,1.40
2019-05-07T14:59:42.967Z,1.83
2019-05-07T15:02:11.898Z,1.70
2019-05-07T15:04:38.458Z,1.37
2019-05-07T15:07:05.471Z,1.70
2019-05-07T15:09:32.265Z,1.63
2019-05-07T15:11:59.106Z,1.70
2019-05-07T15:14:25.933Z,1.63
2019-05-07T15:16:55.252Z,1.90
2019-05-07T15:19:22.102Z,1.87
2019-05-07T15:21:51.781Z,1.70
2019-05-07T15:24:18.726Z,1.87
2019-05-07T15:26:45.584Z,1.93
2019-05-07T15:29:13.386Z,1.40
2019-05-07T15:32:03.381Z,1.53
2019-05-07T15:34:32.645Z,1.43
2019-05-07T15:36:59.102Z,1.47
2019-05-07T15:39:25.967Z,1.50
2019-05-07T15:41:52.789Z,1.20
2019-05-07T15:44:19.803Z,1.87
2019-05-07T15:46:46.633Z,1.60
2019-05-07T15:49:13.484Z,1.60
2019-05-07T15:51:41.911Z,1.97
2019-05-07T15:54:08.992Z,1.70
2019-05-07T15:56:36.017Z,1.80
2019-05-07T15:59:02.812Z,1.63
2019-05-07T16:01:29.659Z,1.40
2019-05-07T16:03:56.488Z,1.70
2019-05-07T16:06:23.347Z,1.43
2019-05-07T16:08:55.391Z,1.70
2019-05-07T16:11:23.235Z,1.53
2019-05-07T16:14:16.318Z,1.57
2019-05-07T16:16:45.316Z,1.43
2019-05-07T16:19:19.267Z,1.40
2019-05-07T16:21:46.520Z,1.70
2019-05-07T16:24:13.470Z,1.63
2019-05-07T16:26:41.897Z,1.80
2019-05-07T16:29:08.950Z,1.20
2019-05-07T16:31:36.021Z,2.07
2019-05-07T16:34:02.899Z,1.70
2019-05-07T16:36:29.764Z,2.10
2019-05-07T16:38:56.771Z,1.57
2019-05-07T16:41:23.634Z,1.53
2019-05-07T16:43:52.472Z,2.43
2019-05-07T16:46:19.488Z,1.90
2019-05-07T16:48:46.421Z,2.27
2019-05-07T16:51:14.874Z,2.50
2019-05-07T16:53:42.108Z,1.80
2019-05-07T16:56:09.258Z,1.80
2019-05-07T16:58:49.913Z,1.50
2019-05-07T17:01:16.791Z,1.67
2019-05-07T17:03:47.660Z,1.90
2019-05-07T17:06:14.646Z,1.77
2019-05-07T17:08:54.722Z,1.63
2019-05-07T17:11:22.661Z,1.93
2019-05-07T17:13:51.778Z,1.53
2019-05-07T17:16:19.281Z,2.30
2019-05-07T17:18:46.156Z,2.47
2019-05-07T17:21:13.015Z,1.97
2019-05-07T17:23:44.486Z,1.63
2019-05-07T17:26:08.652Z,2.93
2019-05-07T17:28:35.473Z,1.90
2019-05-07T17:31:03.058Z,2.47
2019-05-07T17:33:31.974Z,2.27
2019-05-07T17:35:58.930Z,2.57
2019-05-07T17:38:25.750Z,2.00
2019-05-07T17:40:52.741Z,2.00
2019-05-07T17:43:21.758Z,1.40
2019-05-07T17:45:48.343Z,1.73
2019-05-07T17:48:15.314Z,2.37
2019-05-07T17:50:50.714Z,1.60
2019-05-07T17:53:17.694Z,2.13
2019-05-07T17:55:44.475Z,1.87
2019-05-07T17:58:12.904Z,3.00
2019-05-07T18:00:42.105Z,2.00
2019-05-07T18:03:46.942Z,2.00
2019-05-07T18:06:13.915Z,1.77
2019-05-07T18:08:40.842Z,1.37
2019-05-07T18:11:20.325Z,2.03
2019-05-07T18:13:36.392Z,2.20
2019-05-07T18:16:26.020Z,2.70
2019-05-07T18:18:52.984Z,2.70
2019-05-07T18:21:22.075Z,2.97
2019-05-07T18:23:49.358Z,3.30
2019-05-07T18:26:27.195Z,2.90
2019-05-07T18:28:44.928Z,2.60
2019-05-07T18:31:12.580Z,2.20
2019-05-07T18:33:53.061Z,3.20
2019-05-07T18:36:20.047Z,3.03
2019-05-07T18:38:46.993Z,3.63
2019-05-07T18:41:13.899Z,2.37
2019-05-07T18:43:42.171Z,2.90
2019-05-07T18:46:09.246Z,2.80
2019-05-07T18:48:36.066Z,2.50
2019-05-07T18:51:03.047Z,2.10
2019-05-07T18:53:31.840Z,2.73
2019-05-07T18:55:58.658Z,2.90
2019-05-07T18:58:25.562Z,2.30
2019-05-07T19:00:56.876Z,2.17
2019-05-07T19:03:25.349Z,2.87
2019-05-07T19:05:52.503Z,2.67
2019-05-07T19:08:19.343Z,2.83
2019-05-07T19:10:46.207Z,2.40
2019-05-07T19:13:13.142Z,2.53
2019-05-07T19:15:41.935Z,3.10
2019-05-07T19:18:08.651Z,2.37
2019-05-07T19:20:35.487Z,3.27
2019-05-07T19:23:02.783Z,2.83
2019-05-07T19:25:32.641Z,1.83
2019-05-07T19:28:01.870Z,2.33
2019-05-07T19:30:28.665Z,3.07
2019-05-07T19:32:56.090Z,2.30
2019-05-07T19:35:23.237Z,2.77
2019-05-07T19:37:52.778Z,2.33
2019-05-07T19:40:20.023Z,3.53
2019-05-07T19:42:52.222Z,3.50
2019-05-07T19:45:23.798Z,2.33
2019-05-07T19:47:48.486Z,2.53
2019-05-07T19:50:15.451Z,2.70
2019-05-07T19:52:42.675Z,1.90
2019-05-07T19:55:10.398Z,2.03
2019-05-07T19:57:43.293Z,2.20
2019-05-07T20:00:12.034Z,2.23
2019-05-07T20:02:43.172Z,1.83
2019-05-07T20:05:12.067Z,2.00
2019-05-07T20:07:38.779Z,2.40
2019-05-07T20:10:05.839Z,2.20
2019-05-07T20:12:32.772Z,1.90
2019-05-07T20:14:59.600Z,2.60
2019-05-07T20:17:26.496Z,2.03
2019-05-07T20:19:53.332Z,2.03
2019-05-07T20:22:22.095Z,2.77
2019-05-07T20:24:48.807Z,1.97
2019-05-07T20:27:15.650Z,1.90
2019-05-07T20:29:42.834Z,2.27
2019-05-07T20:32:09.832Z,2.10
2019-05-07T20:34:36.650Z,2.20
2019-05-07T20:37:03.609Z,2.30
2019-05-07T20:39:32.241Z,2.33
2019-05-07T20:41:59.044Z,2.40
2019-05-07T20:44:25.909Z,2.13
2019-05-07T20:46:53.601Z,2.80
2019-05-07T20:49:22.497Z,2.30
2019-05-07T20:51:49.204Z,1.93
2019-05-07T20:54:52.612Z,2.00
2019-05-07T20:57:25.021Z,2.87
2019-05-07T20:59:51.860Z,2.00
2019-05-07T21:02:18.677Z,2.00
2019-05-07T21:04:45.531Z,1.90
2019-05-07T21:07:12.437Z,1.70
2019-05-07T21:09:39.346Z,1.90
2019-05-07T21:12:06.152Z,1.73
2019-05-07T21:14:32.974Z,1.63
2019-05-07T21:16:59.830Z,2.20
2019-05-07T21:19:26.704Z,2.30
2019-05-07T21:21:53.538Z,2.27
2019-05-07T21:24:22.558Z,2.60
2019-05-07T21:26:49.315Z,1.97
2019-05-07T21:29:16.151Z,1.93
2019-05-07T21:31:43.297Z,1.83
2019-05-07T21:34:12.176Z,1.73
2019-05-07T21:36:38.939Z,1.80
2019-05-07T21:39:06.024Z,1.67
2019-05-07T21:41:33.496Z,2.17
2019-05-07T21:44:00.503Z,2.27
2019-05-07T21:46:27.312Z,1.77
2019-05-07T21:48:54.163Z,1.87
2019-05-07T21:51:22.851Z,2.13
2019-05-07T21:53:59.312Z,1.80
2019-05-07T21:56:54.654Z,1.70
2019-05-07T21:59:23.166Z,1.80
2019-05-07T22:01:53.489Z,1.97
2019-05-07T22:04:20.348Z,1.97
2019-05-07T22:06:47.172Z,2.03
2019-05-07T22:09:15.895Z,1.67
2019-05-07T22:11:42.847Z,1.70
2019-05-07T22:14:09.723Z,1.87
2019-05-07T22:16:37.308Z,2.23
2019-05-07T22:19:04.331Z,3.10
2019-05-07T22:21:33.864Z,1.60
2019-05-07T22:24:00.131Z,1.83
2019-05-07T22:26:26.935Z,1.40
2019-05-07T22:28:54.165Z,2.70
2019-05-07T22:31:36.673Z,2.47
2019-05-07T22:34:32.203Z,1.63
2019-05-07T22:36:58.981Z,2.00
2019-05-07T22:39:25.967Z,1.83
2019-05-07T22:41:52.825Z,1.63
2019-05-07T22:44:22.704Z,2.10
2019-05-07T22:46:48.288Z,1.70
2019-05-07T22:49:15.212Z,1.60
2019-05-07T22:51:42.072Z,1.50
2019-05-07T22:54:08.924Z,1.87
2019-05-07T22:56:53.735Z,1.50
2019-05-07T22:59:22.477Z,2.00
2019-05-07T23:01:49.203Z,1.70
2019-05-07T23:04:16.013Z,1.40
2019-05-07T23:06:43.683Z,1.40
2019-05-07T23:09:12.672Z,2.10
2019-05-07T23:11:39.229Z,1.77
2019-05-07T23:14:06.058Z,1.80
2019-05-07T23:16:32.910Z,1.50
2019-05-07T23:18:59.767Z,1.90
2019-05-07T23:21:26.642Z,1.97
2019-05-07T23:23:53.488Z,1.60
2019-05-07T23:26:20.317Z,1.43
2019-05-07T23:28:47.153Z,1.40
2019-05-07T23:31:13.990Z,1.40
2019-05-07T23:33:40.842Z,1.50
2019-05-07T23:36:07.678Z,1.60
2019-05-07T23:38:34.551Z,1.60
2019-05-07T23:41:22.950Z,1.20
2019-05-07T23:44:08.084Z,2.27
2019-05-07T23:46:34.942Z,1.87
2019-05-07T23:49:02.880Z,1.80
2019-05-07T23:51:29.975Z,1.73
2019-05-07T23:53:56.887Z,1.30
2019-05-07T23:56:25.132Z,1.67
2019-05-07T23:58:52.549Z,1.77
